Time;durP1;ratioP1;P1;durP2;ratioP2;P2;SDS_P1;SDS_P2;PMS_P1;PMS_P2;Temp;Humidity;BMP_temperature;BMP_pressure;BME280_temperature;BME280_humidity;BME280_pressure;Samples;Min_cycle;Max_cycle;Signal;HPM_P1;HPM_P2
2020/12/20 00:01:44;;;;;;;6.53;3.10;;;16.20;61.60;;;;;;4862381;29;20463;-75
2020/12/20 00:04:30;;;;;;;4.88;3.17;;;16.20;61.60;;;;;;4856635;29;20413;-75
2020/12/20 00:06:57;;;;;;;6.15;3.10;;;16.20;61.50;;;;;;4844017;29;20061;-74
2020/12/20 00:09:25;;;;;;;6.43;3.13;;;16.20;61.40;;;;;;4844370;29;20054;-74
2020/12/20 00:12:12;;;;;;;5.10;2.97;;;16.10;61.30;;;;;;4862440;29;20085;-74
2020/12/20 00:14:38;;;;;;;6.47;2.85;;;16.20;61.50;;;;;;4866568;29;20128;-74
2020/12/20 00:17:09;;;;;;;4.32;3.22;;;16.10;61.50;;;;;;4866422;29;20049;-74
2020/12/20 00:19:54;;;;;;;4.75;3.38;;;16.10;61.50;;;;;;4865667;29;20467;-73
2020/12/20 00:22:40;;;;;;;6.10;3.25;;;16.10;61.60;;;;;;4879167;29;20131;-73
2020/12/20 00:25:26;;;;;;;4.93;3.08;;;16.10;61.60;;;;;;4864876;29;20088;-74
2020/12/20 00:27:52;;;;;;;4.18;3.33;;;16.00;61.40;;;;;;4866072;29;20481;-75
2020/12/20 00:30:37;;;;;;;5.80;3.05;;;16.00;61.40;;;;;;4878357;29;20451;-75
2020/12/20 00:33:06;;;;;;;5.50;3.17;;;16.00;61.40;;;;;;4866101;29;20132;-74
2020/12/20 00:35:52;;;;;;;6.50;3.17;;;16.10;61.50;;;;;;4855550;29;20045;-74
2020/12/20 00:38:18;;;;;;;4.65;3.03;;;16.00;61.40;;;;;;4880912;29;20056;-75
2020/12/20 00:40:43;;;;;;;4.88;2.97;;;16.00;61.40;;;;;;4865836;29;20125;-74
2020/12/20 00:43:09;;;;;;;4.45;2.78;;;16.00;61.40;;;;;;4865941;29;20117;-74
2020/12/20 00:45:35;;;;;;;4.60;2.78;;;16.00;61.50;;;;;;4865913;29;20041;-75
2020/12/20 00:48:20;;;;;;;5.75;3.42;;;16.00;61.40;;;;;;4859404;29;20053;-74
2020/12/20 00:50:46;;;;;;;6.70;2.97;;;16.00;61.40;;;;;;4857848;29;20053;-74
2020/12/20 00:53:32;;;;;;;7.07;3.15;;;16.00;61.40;;;;;;4877698;29;20391;-74
2020/12/20 00:55:58;;;;;;;5.45;3.00;;;16.00;61.40;;;;;;4865484;29;20042;-74
2020/12/20 00:58:24;;;;;;;5.10;3.00;;;15.90;61.30;;;;;;4865887;29;20363;-74
2020/12/20 01:01:10;;;;;;;7.13;3.55;;;16.00;61.30;;;;;;4864703;29;20056;-74
2020/12/20 01:03:37;;;;;;;5.75;3.38;;;15.90;61.30;;;;;;4865773;29;20515;-74
2020/12/20 01:06:04;;;;;;;5.80;3.30;;;15.90;61.20;;;;;;4865031;29;20215;-74
2020/12/20 01:08:30;;;;;;;7.13;2.88;;;15.90;61.20;;;;;;4865319;29;20062;-75
2020/12/20 01:10:56;;;;;;;5.13;3.20;;;15.90;61.30;;;;;;4866049;29;20076;-75
2020/12/20 01:13:22;;;;;;;5.80;3.15;;;15.90;61.20;;;;;;4865746;29;20456;-75
2020/12/20 01:15:49;;;;;;;5.38;3.60;;;15.90;61.20;;;;;;4865547;29;20102;-74
2020/12/20 01:18:16;;;;;;;6.00;3.10;;;15.90;61.30;;;;;;4865521;29;20057;-74
2020/12/20 01:20:43;;;;;;;5.90;3.28;;;15.90;61.30;;;;;;4865546;29;20132;-74
2020/12/20 01:23:09;;;;;;;6.82;3.22;;;15.90;61.30;;;;;;4863377;29;20430;-73
2020/12/20 01:25:35;;;;;;;5.78;3.13;;;15.90;61.30;;;;;;4864996;29;20491;-74
2020/12/20 01:28:20;;;;;;;7.38;3.38;;;15.90;61.20;;;;;;4863887;29;20061;-74
2020/12/20 01:31:08;;;;;;;6.43;3.72;;;15.90;61.20;;;;;;4877635;29;20375;-74
2020/12/20 01:33:36;;;;;;;4.63;3.42;;;15.90;61.20;;;;;;4865283;29;20045;-75
2020/12/20 01:36:09;;;;;;;4.32;3.08;;;15.90;61.20;;;;;;4864895;29;20539;-74
2020/12/20 01:38:55;;;;;;;5.82;3.00;;;15.90;61.20;;;;;;4863961;29;20057;-74
2020/12/20 01:41:41;;;;;;;6.25;4.00;;;15.90;61.20;;;;;;4877238;29;20056;-74
2020/12/20 01:44:27;;;;;;;7.03;3.33;;;15.90;61.20;;;;;;4864140;29;20435;-74
2020/12/20 01:46:55;;;;;;;6.13;3.50;;;15.80;61.10;;;;;;4864429;29;20124;-75
2020/12/20 01:49:24;;;;;;;3.80;2.75;;;15.80;61.10;;;;;;4864819;29;20064;-74
2020/12/20 01:51:51;;;;;;;4.35;2.85;;;15.90;61.10;;;;;;4864667;29;20060;-73
2020/12/20 01:54:18;;;;;;;5.93;3.70;;;15.90;61.00;;;;;;4864074;29;20082;-74
2020/12/20 01:56:45;;;;;;;6.25;3.92;;;15.90;60.90;;;;;;4864557;29;20147;-75
2020/12/20 01:59:11;;;;;;;7.20;3.15;;;15.90;61.00;;;;;;4865188;29;20064;-74
2020/12/20 02:01:37;;;;;;;4.43;3.33;;;15.90;61.00;;;;;;4864334;29;20049;-75
2020/12/20 02:04:22;;;;;;;6.05;3.70;;;15.90;60.90;;;;;;4876685;29;20140;-75
2020/12/20 02:06:48;;;;;;;5.45;3.15;;;15.90;61.00;;;;;;4864100;29;20527;-75
2020/12/20 02:09:18;;;;;;;6.25;3.42;;;15.90;60.90;;;;;;4865289;29;20351;-74
2020/12/20 02:11:44;;;;;;;3.63;2.80;;;15.90;60.90;;;;;;4864369;29;20075;-75
2020/12/20 02:14:31;;;;;;;6.70;3.22;;;15.90;60.80;;;;;;4876886;29;20045;-74
2020/12/20 02:16:57;;;;;;;4.60;3.08;;;15.90;60.90;;;;;;4865002;29;20053;-74
2020/12/20 02:19:23;;;;;;;6.20;3.28;;;15.80;60.90;;;;;;4864145;29;20085;-75
2020/12/20 02:21:49;;;;;;;6.22;2.95;;;15.80;60.90;;;;;;4864031;29;20052;-74
2020/12/20 02:24:15;;;;;;;5.05;3.30;;;15.80;60.90;;;;;;4864149;29;20144;-74
2020/12/20 02:26:41;;;;;;;6.13;3.05;;;15.80;60.80;;;;;;4863306;29;20394;-75
2020/12/20 02:29:27;;;;;;;4.90;2.80;;;15.80;60.90;;;;;;4863652;29;20049;-75
2020/12/20 02:31:53;;;;;;;6.93;3.45;;;15.80;60.90;;;;;;4864309;29;20460;-75
2020/12/20 02:34:19;;;;;;;5.00;3.30;;;15.80;60.90;;;;;;4863077;29;20077;-75
2020/12/20 02:36:45;;;;;;;4.32;2.85;;;15.80;61.00;;;;;;4864471;29;20053;-74
2020/12/20 02:39:11;;;;;;;5.22;2.88;;;15.80;60.90;;;;;;4864255;29;20482;-74
2020/12/20 02:41:37;;;;;;;4.63;2.83;;;15.80;60.90;;;;;;4863949;29;20132;-74
2020/12/20 02:44:03;;;;;;;4.75;2.78;;;15.80;60.90;;;;;;4864120;29;20500;-75
2020/12/20 02:46:30;;;;;;;5.68;3.03;;;15.70;60.80;;;;;;4864089;29;20079;-74
2020/12/20 02:48:57;;;;;;;8.27;3.30;;;15.70;60.80;;;;;;4862471;29;20104;-73
2020/12/20 02:51:23;;;;;;;6.90;3.40;;;15.70;60.80;;;;;;4863955;29;20056;-74
2020/12/20 02:53:50;;;;;;;6.22;3.00;;;15.70;60.80;;;;;;4863672;29;20089;-74
2020/12/20 02:56:42;;;;;;;6.00;3.10;;;15.70;60.80;;;;;;4863683;29;20064;-74
2020/12/20 02:59:08;;;;;;;6.20;3.00;;;15.70;60.80;;;;;;4864324;29;20056;-74
2020/12/20 03:01:54;;;;;;;4.50;2.95;;;15.70;60.80;;;;;;4875074;29;20046;-75
2020/12/20 03:04:21;;;;;;;4.70;2.88;;;15.70;60.80;;;;;;4863462;29;20089;-74
2020/12/20 03:07:06;;;;;;;4.15;2.92;;;15.70;60.80;;;;;;4862409;29;20046;-75
2020/12/20 03:09:32;;;;;;;4.82;2.70;;;15.70;60.90;;;;;;4863759;29;20344;-75
2020/12/20 03:12:19;;;;;;;6.35;3.75;;;15.60;60.80;;;;;;4875068;29;20061;-75
2020/12/20 03:14:45;;;;;;;5.82;2.70;;;15.60;60.80;;;;;;4863462;29;20081;-74
2020/12/20 03:17:11;;;;;;;6.57;3.20;;;15.60;60.80;;;;;;4863553;29;20478;-74
2020/12/20 03:19:37;;;;;;;5.85;3.10;;;15.60;60.90;;;;;;4862921;29;20053;-74
2020/12/20 03:22:03;;;;;;;3.85;2.70;;;15.60;60.90;;;;;;4863150;29;20141;-74
2020/12/20 03:24:28;;;;;;;5.53;3.03;;;15.60;60.90;;;;;;4862648;29;20052;-75
2020/12/20 03:26:54;;;;;;;4.05;2.70;;;15.60;61.00;;;;;;4862706;29;20049;-75
2020/12/20 03:29:40;;;;;;;4.85;2.65;;;15.60;61.00;;;;;;4875614;29;20095;-74
2020/12/20 03:32:06;;;;;;;4.43;2.63;;;15.60;61.10;;;;;;4863142;29;20069;-74
2020/12/20 03:34:53;;;;;;;6.03;3.22;;;15.60;61.10;;;;;;4862313;29;20057;-75
2020/12/20 03:37:46;;;;;;;4.80;2.40;;;15.60;61.20;;;;;;4862563;29;20133;-74
2020/12/20 03:40:32;;;;;;;5.32;2.92;;;15.60;61.20;;;;;;4875301;29;20061;-74
2020/12/20 03:42:58;;;;;;;4.65;3.10;;;15.60;61.30;;;;;;4862761;29;20101;-74
2020/12/20 03:45:23;;;;;;;6.53;2.78;;;15.50;61.20;;;;;;4862948;29;20064;-74
2020/12/20 03:47:49;;;;;;;5.60;2.83;;;15.50;61.20;;;;;;4861970;29;20042;-74
2020/12/20 03:50:16;;;;;;;5.07;2.80;;;15.50;61.20;;;;;;4863077;29;20049;-75
2020/12/20 03:52:41;;;;;;;6.05;2.58;;;15.50;61.20;;;;;;4863258;29;20121;-74
2020/12/20 03:55:08;;;;;;;4.88;2.60;;;15.50;61.20;;;;;;4863138;29;20443;-74
2020/12/20 03:57:34;;;;;;;5.05;2.50;;;15.50;61.20;;;;;;4863190;29;20431;-75
2020/12/20 04:00:00;;;;;;;5.45;2.78;;;15.50;61.20;;;;;;4863546;29;20459;-75
2020/12/20 04:02:26;;;;;;;5.47;2.97;;;15.50;61.20;;;;;;4861902;29;20057;-75
2020/12/20 04:05:11;;;;;;;4.95;2.65;;;15.50;61.20;;;;;;4862232;29;20449;-75
2020/12/20 04:07:57;;;;;;;5.07;2.63;;;15.50;61.20;;;;;;4874532;29;20052;-74
2020/12/20 04:10:26;;;;;;;6.07;2.63;;;15.50;61.20;;;;;;4862898;29;20378;-74
2020/12/20 04:12:52;;;;;;;4.45;2.63;;;15.40;61.10;;;;;;4862481;29;20041;-75
2020/12/20 04:15:39;;;;;;;8.60;3.22;;;15.50;61.20;;;;;;4862155;29;20053;-74
2020/12/20 04:18:04;;;;;;;7.95;3.00;;;15.40;61.20;;;;;;4863277;29;20076;-74
2020/12/20 04:20:30;;;;;;;4.82;2.45;;;15.40;61.20;;;;;;4862841;29;20053;-75
2020/12/20 04:23:16;;;;;;;5.10;2.47;;;15.50;61.40;;;;;;4875251;29;20345;-74
2020/12/20 04:25:42;;;;;;;5.10;2.67;;;15.40;61.40;;;;;;4862265;29;20060;-75
2020/12/20 04:28:08;;;;;;;4.75;2.78;;;15.40;61.40;;;;;;4862021;29;20050;-74
2020/12/20 04:30:33;;;;;;;9.73;2.95;;;15.40;61.40;;;;;;4862870;29;20049;-75
2020/12/20 04:33:19;;;;;;;5.90;2.50;;;15.40;61.40;;;;;;4874603;29;20057;-74
2020/12/20 04:35:45;;;;;;;6.28;2.63;;;15.40;61.40;;;;;;4862485;29;20053;-75
2020/12/20 04:38:31;;;;;;;6.10;2.65;;;15.40;61.40;;;;;;4874834;29;20132;-74
2020/12/20 04:40:57;;;;;;;5.93;2.67;;;15.40;61.40;;;;;;4862436;29;20124;-75
2020/12/20 04:43:23;;;;;;;5.00;2.58;;;15.40;61.40;;;;;;4862709;29;20125;-74
2020/12/20 04:45:52;;;;;;;6.15;2.50;;;15.40;61.40;;;;;;4863078;29;20448;-74
2020/12/20 04:48:19;;;;;;;6.78;2.72;;;15.40;61.40;;;;;;4862176;29;20113;-75
2020/12/20 04:50:46;;;;;;;4.97;2.70;;;15.40;61.50;;;;;;4862266;29;20041;-73
2020/12/20 04:53:13;;;;;;;4.88;2.80;;;15.40;61.40;;;;;;4862383;29;20455;-75
2020/12/20 04:56:02;;;;;;;6.78;2.83;;;15.40;61.50;;;;;;4861613;29;20141;-75
2020/12/20 04:58:28;;;;;;;5.95;2.53;;;15.40;61.40;;;;;;4864420;29;20046;-74
2020/12/20 05:00:54;;;;;;;6.07;2.72;;;15.40;61.40;;;;;;4866174;29;20059;-75
2020/12/20 05:03:20;;;;;;;3.53;2.30;;;15.40;61.40;;;;;;4864806;29;20061;-75
2020/12/20 05:05:45;;;;;;;7.03;2.80;;;15.40;61.40;;;;;;4865305;29;20049;-75
2020/12/20 05:08:14;;;;;;;4.63;2.60;;;15.40;61.40;;;;;;4864961;29;20053;-74
2020/12/20 05:10:41;;;;;;;4.72;2.33;;;15.40;61.30;;;;;;4865789;29;20087;-75
2020/12/20 05:13:07;;;;;;;5.50;2.28;;;15.40;61.40;;;;;;4865711;29;20056;-74
2020/12/20 05:15:34;;;;;;;5.32;2.40;;;15.40;61.40;;;;;;4865490;29;20554;-75
2020/12/20 05:18:15;;;;;;;4.13;2.40;;;15.40;61.50;;;;;;4864838;29;20046;-74
2020/12/20 05:20:48;;;;;;;4.30;2.85;;;15.40;61.60;;;;;;4866132;29;20060;-74
2020/12/20 05:23:15;;;;;;;5.40;2.33;;;15.40;61.60;;;;;;4865961;29;20107;-78
2020/12/20 05:25:42;;;;;;;8.82;2.38;;;15.40;61.60;;;;;;4865415;29;20065;-75
2020/12/20 05:28:14;;;;;;;4.07;1.75;;;15.50;61.60;;;;;;4864312;29;20387;-75
2020/12/20 05:31:09;;;;;;;8.18;2.50;;;15.50;61.60;;;;;;4876976;29;20059;-76
2020/12/20 05:33:37;;;;;;;7.88;1.85;;;15.60;62.10;;;;;;4865114;29;20053;-74
2020/12/20 05:36:05;;;;;;;7.85;1.80;;;15.70;62.00;;;;;;4864890;29;20416;-73
2020/12/20 05:38:32;;;;;;;4.65;1.88;;;15.80;61.80;;;;;;4865222;29;20046;-74
2020/12/20 05:40:59;;;;;;;6.72;2.10;;;16.00;61.80;;;;;;4865391;29;20055;-74
2020/12/20 05:43:27;;;;;;;6.68;1.67;;;16.10;61.60;;;;;;4864872;29;20502;-74
2020/12/20 05:45:54;;;;;;;4.40;1.50;;;16.30;61.50;;;;;;4864966;29;20057;-74
2020/12/20 05:48:23;;;;;;;4.40;1.55;;;16.40;61.40;;;;;;4863857;29;20061;-76
2020/12/20 05:50:58;;;;;;;3.60;1.55;;;16.50;61.30;;;;;;4865065;29;20428;-73
2020/12/20 05:53:34;;;;;;;4.70;1.80;;;16.60;61.20;;;;;;4864846;29;20050;-74
2020/12/20 05:56:20;;;;;;;6.25;1.60;;;16.60;61.10;;;;;;4863969;29;20387;-75
2020/12/20 05:58:46;;;;;;;5.50;1.65;;;16.70;61.20;;;;;;4864736;29;20045;-74
2020/12/20 06:01:14;;;;;;;8.45;1.90;;;16.70;61.20;;;;;;4864045;29;20045;-75
2020/12/20 06:03:41;;;;;;;6.60;1.60;;;16.70;61.30;;;;;;4865028;29;20052;-75
2020/12/20 06:06:10;;;;;;;4.90;1.65;;;16.70;61.40;;;;;;4864426;29;20061;-75
2020/12/20 06:09:02;;;;;;;6.63;1.63;;;16.70;61.50;;;;;;4888448;29;20551;-74
2020/12/20 06:11:32;;;;;;;9.45;1.80;;;16.80;61.60;;;;;;4864402;29;20197;-74
2020/12/20 06:13:59;;;;;;;6.45;2.10;;;16.80;61.70;;;;;;4864093;29;20475;-74
2020/12/20 06:16:26;;;;;;;7.05;1.60;;;16.80;61.70;;;;;;4864134;29;20133;-75
2020/12/20 06:19:02;;;;;;;5.70;1.50;;;16.90;61.70;;;;;;4864010;29;20045;-72
2020/12/20 06:21:57;;;;;;;6.68;1.77;;;17.00;61.80;;;;;;4863921;29;20121;-72
2020/12/20 06:24:45;;;;;;;;;;;17.10;62.10;;;;;;4862332;29;20050;-72
2020/12/20 06:27:14;;;;;;;13.68;3.00;;;17.20;61.90;;;;;;4863115;29;20341;-76
2020/12/20 06:29:44;;;;;;;9.35;3.15;;;17.10;62.00;;;;;;4864286;29;20455;-71
2020/12/20 06:32:13;;;;;;;9.00;5.35;;;17.20;63.10;;;;;;4863657;29;20037;-73
2020/12/20 06:34:41;;;;;;;11.55;3.67;;;17.20;63.30;;;;;;4863613;29;20049;-72
2020/12/20 06:37:08;;;;;;;7.47;3.03;;;17.30;63.80;;;;;;4863895;29;20528;-73
2020/12/20 06:39:41;;;;;;;10.82;4.53;;;17.30;63.70;;;;;;4863881;29;20046;-75
2020/12/20 06:42:41;;;;;;;12.98;4.85;;;17.40;64.30;;;;;;4863275;29;20088;-71
2020/12/20 06:45:16;;;;;;;8.88;3.42;;;17.40;64.80;;;;;;4863653;29;20122;-77
2020/12/20 06:47:44;;;;;;;8.13;3.90;;;17.50;64.60;;;;;;4859751;29;20060;-75
2020/12/20 06:50:38;;;;;;;13.23;4.20;;;17.60;64.40;;;;;;4859689;29;20073;-75
2020/12/20 06:53:49;;;;;;;10.55;4.10;;;17.60;64.30;;;;;;4861738;29;20132;-74
2020/12/20 06:56:22;;;;;;;12.18;3.78;;;17.60;64.10;;;;;;4862133;29;20190;-75
2020/12/20 06:58:49;;;;;;;9.40;2.92;;;17.60;64.00;;;;;;4862297;29;20124;-74
2020/12/20 07:01:36;;;;;;;8.32;3.42;;;17.60;63.70;;;;;;4861822;29;20045;-72
2020/12/20 07:04:16;;;;;;;11.93;3.50;;;17.60;63.40;;;;;;4846038;29;20124;-73
2020/12/20 07:07:07;;;;;;;5.30;2.50;;;17.50;63.00;;;;;;4848896;29;20102;-72
2020/12/20 07:09:33;;;;;;;5.50;2.85;;;17.50;62.70;;;;;;4860508;29;20102;-72
2020/12/20 07:11:59;;;;;;;16.65;3.30;;;17.50;63.00;;;;;;4854082;29;20499;-72
2020/12/20 07:14:25;;;;;;;8.73;2.20;;;17.60;62.90;;;;;;4868892;29;20124;-72
2020/12/20 07:16:52;;;;;;;7.53;2.17;;;17.60;62.80;;;;;;4862024;29;20122;-72
2020/12/20 07:19:25;;;;;;;8.88;2.47;;;17.60;62.70;;;;;;4872509;29;20052;-72
2020/12/20 07:21:54;;;;;;;10.05;2.42;;;17.70;62.70;;;;;;4881963;29;20037;-72
2020/12/20 07:24:34;;;;;;;10.52;2.65;;;17.70;62.70;;;;;;4881819;29;20078;-72
2020/12/20 07:27:02;;;;;;;7.53;2.33;;;17.70;62.90;;;;;;4881238;29;20057;-72
2020/12/20 07:29:33;;;;;;;7.88;2.20;;;17.70;62.80;;;;;;4857980;29;20073;-72
2020/12/20 07:32:01;;;;;;;11.75;2.22;;;17.80;62.90;;;;;;4860340;29;20113;-72
2020/12/20 07:34:27;;;;;;;8.05;2.58;;;17.80;62.90;;;;;;4860966;29;20049;-73
2020/12/20 07:36:54;;;;;;;9.63;2.17;;;17.80;62.90;;;;;;4862076;29;20056;-73
2020/12/20 07:39:20;;;;;;;10.57;2.20;;;17.80;63.00;;;;;;4857609;29;20109;-72
2020/12/20 07:41:46;;;;;;;10.95;2.00;;;17.80;63.00;;;;;;4856238;29;20053;-74
2020/12/20 07:44:34;;;;;;;11.55;2.08;;;17.80;63.00;;;;;;4873967;29;20063;-73
2020/12/20 07:47:09;;;;;;;14.10;2.13;;;17.80;63.10;;;;;;4862706;29;20060;-73
2020/12/20 07:49:35;;;;;;;10.88;1.92;;;17.80;63.20;;;;;;4862470;29;20057;-73
2020/12/20 07:52:08;;;;;;;7.28;1.83;;;17.80;63.10;;;;;;4862457;29;20440;-73
2020/12/20 07:54:34;;;;;;;15.93;2.53;;;17.80;63.20;;;;;;4862677;29;20136;-73
2020/12/20 07:57:00;;;;;;;8.07;2.33;;;17.80;63.10;;;;;;4862118;29;20124;-73
2020/12/20 07:59:26;;;;;;;7.10;2.35;;;17.80;63.10;;;;;;4862871;29;20058;-73
2020/12/20 08:01:51;;;;;;;9.70;1.83;;;17.80;63.00;;;;;;4862061;29;20057;-75
2020/12/20 08:04:19;;;;;;;13.32;2.75;;;17.80;63.00;;;;;;4862326;29;20053;-74
2020/12/20 08:06:50;;;;;;;10.27;2.42;;;17.80;63.10;;;;;;4867192;29;20050;-73
2020/12/20 08:09:18;;;;;;;8.02;1.98;;;17.80;63.20;;;;;;4862526;29;20459;-73
2020/12/20 08:12:05;;;;;;;14.05;2.45;;;17.70;63.10;;;;;;4875039;29;20053;-73
2020/12/20 08:14:31;;;;;;;13.82;2.45;;;17.70;63.10;;;;;;4862057;29;20046;-74
2020/12/20 08:16:57;;;;;;;11.40;2.28;;;17.70;63.10;;;;;;4861182;29;20072;-75
2020/12/20 08:19:31;;;;;;;9.02;2.60;;;17.70;63.30;;;;;;4861928;29;20061;-72
2020/12/20 08:22:03;;;;;;;13.10;2.17;;;17.60;63.20;;;;;;4859029;29;20137;-72
2020/12/20 08:24:31;;;;;;;12.38;2.50;;;17.60;63.10;;;;;;4856471;29;20436;-72
2020/12/20 08:26:58;;;;;;;13.95;2.25;;;17.60;63.10;;;;;;4862305;29;20451;-76
2020/12/20 08:29:46;;;;;;;12.60;2.15;;;17.50;63.10;;;;;;4861384;29;20053;-74
2020/12/20 08:32:18;;;;;;;10.35;2.28;;;17.50;63.10;;;;;;4863303;29;20113;-72
2020/12/20 08:34:44;;;;;;;14.00;2.67;;;17.50;63.40;;;;;;4868810;29;20121;-72
2020/12/20 08:37:33;;;;;;;10.10;2.95;;;17.50;63.40;;;;;;4865048;29;20065;-72
2020/12/20 08:40:10;;;;;;;9.98;2.28;;;17.50;62.90;;;;;;4865672;29;20049;-73
2020/12/20 08:42:58;;;;;;;7.15;2.78;;;17.40;62.70;;;;;;4878182;29;20423;-73
2020/12/20 08:45:25;;;;;;;8.93;2.03;;;17.40;62.60;;;;;;4866523;29;20097;-73
2020/12/20 08:47:58;;;;;;;6.90;2.00;;;17.30;62.40;;;;;;4866117;29;20128;-73
2020/12/20 08:50:44;;;;;;;7.72;2.67;;;17.30;62.30;;;;;;4878168;29;20049;-73
2020/12/20 08:53:30;;;;;;;6.25;2.60;;;17.30;62.30;;;;;;4877895;29;20494;-73
2020/12/20 08:55:55;;;;;;;9.35;2.40;;;17.20;62.30;;;;;;4865929;29;20053;-73
2020/12/20 08:58:21;;;;;;;9.27;2.60;;;17.20;62.20;;;;;;4866029;29;20053;-74
2020/12/20 09:00:56;;;;;;;9.98;2.38;;;17.20;62.80;;;;;;4865872;29;20081;-73
2020/12/20 09:03:24;;;;;;;10.65;2.70;;;17.20;62.10;;;;;;4879264;29;20049;-73
2020/12/20 09:05:50;;;;;;;10.55;2.40;;;17.20;62.20;;;;;;4884053;29;20080;-73
2020/12/20 09:08:19;;;;;;;6.43;1.92;;;17.10;62.10;;;;;;4884264;29;20072;-73
2020/12/20 09:10:45;;;;;;;6.88;2.25;;;17.10;62.10;;;;;;4883897;29;20112;-74
2020/12/20 09:13:10;;;;;;;7.47;2.65;;;17.10;62.10;;;;;;4884222;29;20064;-74
2020/12/20 09:15:56;;;;;;;5.30;2.45;;;17.10;62.00;;;;;;4883892;29;20144;-72
2020/12/20 09:18:25;;;;;;;5.18;1.83;;;17.10;62.10;;;;;;4884353;29;20072;-73
2020/12/20 09:20:51;;;;;;;7.60;2.25;;;17.00;62.00;;;;;;4884163;29;20055;-72
2020/12/20 09:23:21;;;;;;;6.95;2.55;;;17.00;62.00;;;;;;4884003;29;20146;-73
2020/12/20 09:25:48;;;;;;;4.47;1.98;;;17.00;62.00;;;;;;4884247;29;20060;-73
2020/12/20 09:28:20;;;;;;;7.25;1.95;;;17.00;62.00;;;;;;4883854;29;20045;-73
2020/12/20 09:30:54;;;;;;;5.13;2.08;;;17.00;62.00;;;;;;4874325;29;20053;-73
2020/12/20 09:33:21;;;;;;;5.18;2.33;;;16.90;61.90;;;;;;4865447;29;20061;-73
2020/12/20 09:35:56;;;;;;;7.05;2.60;;;16.90;61.90;;;;;;4865165;29;20405;-73
2020/12/20 09:38:24;;;;;;;7.78;2.38;;;16.90;61.90;;;;;;4865573;29;20053;-74
2020/12/20 09:41:02;;;;;;;4.35;1.70;;;16.90;61.90;;;;;;4864812;29;20049;-73
2020/12/20 09:43:29;;;;;;;5.40;1.92;;;16.90;61.90;;;;;;4864467;29;20367;-73
2020/12/20 09:46:23;;;;;;;8.80;2.05;;;16.80;61.90;;;;;;4863872;29;20123;-74
2020/12/20 09:48:50;;;;;;;6.53;2.17;;;16.80;61.90;;;;;;4864862;29;20456;-73
2020/12/20 09:51:20;;;;;;;4.63;2.00;;;16.80;61.90;;;;;;4865021;29;20069;-73
2020/12/20 09:53:47;;;;;;;5.53;1.70;;;16.80;61.90;;;;;;4865009;29;20081;-74
2020/12/20 09:56:33;;;;;;;6.13;2.30;;;16.80;62.00;;;;;;4877045;29;20058;-73
2020/12/20 09:59:19;;;;;;;5.22;2.28;;;16.70;62.00;;;;;;4864192;29;20085;-75
2020/12/20 10:01:44;;;;;;;7.65;2.22;;;16.70;62.00;;;;;;4880897;29;20104;-74
2020/12/20 10:04:34;;;;;;;4.53;1.98;;;16.70;61.90;;;;;;4895275;29;20085;-73
2020/12/20 10:07:00;;;;;;;7.00;2.38;;;16.70;62.00;;;;;;4883104;29;20041;-73
2020/12/20 10:09:26;;;;;;;6.28;2.10;;;16.70;62.00;;;;;;4864712;29;20496;-73
2020/12/20 10:12:14;;;;;;;4.95;2.03;;;16.70;62.00;;;;;;4894686;29;20045;-74
2020/12/20 10:14:43;;;;;;;6.05;2.50;;;16.60;61.90;;;;;;4883735;29;20462;-73
2020/12/20 10:17:29;;;;;;;5.43;2.10;;;16.60;61.90;;;;;;4891835;29;20053;-74
2020/12/20 10:19:55;;;;;;;5.38;2.25;;;16.60;61.90;;;;;;4863995;29;20104;-74
2020/12/20 10:22:21;;;;;;;5.18;2.45;;;16.60;61.90;;;;;;4864277;29;20085;-73
2020/12/20 10:25:07;;;;;;;7.15;2.40;;;16.60;62.00;;;;;;4876068;29;20064;-74
2020/12/20 10:27:33;;;;;;;5.60;2.20;;;16.50;61.90;;;;;;4864371;29;20049;-73
2020/12/20 10:30:18;;;;;;;5.50;2.55;;;16.50;61.90;;;;;;4863409;29;20057;-73
2020/12/20 10:32:47;;;;;;;5.40;2.00;;;16.50;61.90;;;;;;4864063;29;20076;-73
2020/12/20 10:35:33;;;;;;;8.98;2.75;;;16.50;61.90;;;;;;4875253;29;20476;-73
2020/12/20 10:38:19;;;;;;;12.00;2.85;;;16.50;61.90;;;;;;4861835;29;20064;-73
2020/12/20 10:40:44;;;;;;;11.05;2.58;;;16.50;62.20;;;;;;4871515;29;20088;-73
2020/12/20 10:43:10;;;;;;;6.85;2.40;;;16.50;62.40;;;;;;4881378;29;20120;-74
2020/12/20 10:45:36;;;;;;;9.77;3.60;;;16.50;62.50;;;;;;4866824;29;20047;-73
2020/12/20 10:48:02;;;;;;;12.48;2.95;;;16.50;62.80;;;;;;4862923;29;20049;-77
2020/12/20 10:50:27;;;;;;;10.85;2.95;;;16.50;63.00;;;;;;4867337;29;20041;-73
2020/12/20 10:52:53;;;;;;;8.00;2.40;;;16.50;63.00;;;;;;4864613;29;20128;-73
2020/12/20 10:55:40;;;;;;;13.63;2.10;;;16.50;63.10;;;;;;4875365;29;20049;-74
2020/12/20 10:58:06;;;;;;;8.18;1.90;;;16.60;63.20;;;;;;4863584;29;20057;-74
2020/12/20 11:00:32;;;;;;;14.48;2.75;;;16.70;63.90;;;;;;4862728;29;20049;-76
2020/12/20 11:03:17;;;;;;;13.05;2.38;;;16.70;63.30;;;;;;4854828;29;20063;-77
2020/12/20 11:05:43;;;;;;;11.00;2.50;;;16.90;63.30;;;;;;4861858;29;20375;-76
2020/12/20 11:08:09;;;;;;;7.63;1.73;;;16.90;63.20;;;;;;4863236;29;20084;-78
2020/12/20 11:10:35;;;;;;;10.55;2.88;;;17.00;63.10;;;;;;4862587;29;20073;-78
2020/12/20 11:13:01;;;;;;;12.20;3.35;;;17.00;63.00;;;;;;4863500;29;20041;-77
2020/12/20 11:15:27;;;;;;;19.80;4.70;;;17.10;63.60;;;;;;4863129;29;20053;-74
2020/12/20 11:18:13;;;;;;;13.25;3.03;;;17.10;63.60;;;;;;4874905;29;20050;-78
2020/12/20 11:20:39;;;;;;;14.80;4.60;;;17.10;63.50;;;;;;4863168;29;20088;-78
2020/12/20 11:23:28;;;;;;;18.08;5.20;;;17.10;63.50;;;;;;4862624;29;20077;-79
2020/12/20 11:26:17;;;;;;;12.90;4.32;;;17.10;63.70;;;;;;4861311;29;20096;-80
2020/12/20 11:28:44;;;;;;;8.77;4.30;;;17.20;63.80;;;;;;4862585;29;20064;-77
2020/12/20 11:31:30;;;;;;;13.15;4.90;;;17.20;63.70;;;;;;4875529;29;20069;-78
2020/12/20 11:33:55;;;;;;;14.85;5.43;;;17.20;63.70;;;;;;4862707;29;20041;-79
2020/12/20 11:36:42;;;;;;;14.13;4.75;;;17.20;63.60;;;;;;4875171;29;20081;-77
2020/12/20 11:39:28;;;;;;;13.80;3.95;;;17.30;63.60;;;;;;4875520;29;20084;-77
2020/12/20 11:41:54;;;;;;;10.25;3.92;;;17.30;63.50;;;;;;4862602;29;20080;-78
2020/12/20 11:44:21;;;;;;;10.60;3.30;;;17.40;63.50;;;;;;4862561;29;20125;-78
2020/12/20 11:47:06;;;;;;;8.30;3.15;;;17.50;63.50;;;;;;4875069;29;20444;-79
2020/12/20 11:49:32;;;;;;;14.32;3.75;;;17.50;63.40;;;;;;4863567;29;20057;-78
2020/12/20 11:51:58;;;;;;;8.45;3.33;;;17.60;63.40;;;;;;4862255;29;20081;-78
2020/12/20 11:54:44;;;;;;;11.10;3.10;;;17.70;63.40;;;;;;4855850;29;20491;-77
2020/12/20 11:57:11;;;;;;;9.38;2.83;;;17.70;63.10;;;;;;4843920;29;20045;-76
2020/12/20 11:59:56;;;;;;;8.50;3.05;;;17.80;63.00;;;;;;4843340;29;20113;-78
2020/12/20 12:02:42;;;;;;;8.55;3.08;;;17.90;63.00;;;;;;4857318;29;20049;-75
2020/12/20 12:05:28;;;;;;;10.93;3.15;;;17.90;62.90;;;;;;4874857;29;20053;-73
2020/12/20 12:07:54;;;;;;;11.00;3.00;;;17.90;62.80;;;;;;4861732;29;20038;-75
2020/12/20 12:10:19;;;;;;;14.50;3.10;;;17.90;62.70;;;;;;4861773;29;20057;-74
2020/12/20 12:12:45;;;;;;;15.68;3.20;;;17.80;62.60;;;;;;4861916;29;20084;-76
2020/12/20 12:15:11;;;;;;;13.10;2.83;;;17.90;62.70;;;;;;4862413;29;20069;-75
2020/12/20 12:17:57;;;;;;;10.73;2.60;;;17.90;62.80;;;;;;4861636;29;20049;-75
2020/12/20 12:20:23;;;;;;;8.07;2.95;;;17.90;62.80;;;;;;4862224;29;20075;-75
2020/12/20 12:22:49;;;;;;;11.35;3.17;;;17.90;62.80;;;;;;4862086;29;20065;-75
2020/12/20 12:25:16;;;;;;;10.30;2.63;;;18.00;62.70;;;;;;4861929;29;20116;-75
2020/12/20 12:27:42;;;;;;;10.18;2.92;;;18.00;62.70;;;;;;4862771;29;20045;-81
2020/12/20 12:30:17;;;;;;;13.95;3.33;;;18.00;62.70;;;;;;4874668;29;20057;-75
2020/12/20 12:32:43;;;;;;;13.00;3.15;;;18.00;62.80;;;;;;4862529;29;20041;-75
2020/12/20 12:35:09;;;;;;;12.95;3.10;;;18.00;62.80;;;;;;4862481;29;20069;-75
2020/12/20 12:37:35;;;;;;;11.88;2.83;;;18.00;62.80;;;;;;4862126;29;20046;-77
2020/12/20 12:40:04;;;;;;;8.65;2.33;;;18.00;62.90;;;;;;4861221;29;20364;-78
2020/12/20 12:42:29;;;;;;;14.13;2.33;;;18.10;63.00;;;;;;4861452;29;20060;-76
2020/12/20 12:45:17;;;;;;;13.82;2.50;;;18.10;63.00;;;;;;4861611;29;20412;-78
2020/12/20 12:48:06;;;;;;;15.52;2.97;;;18.10;63.10;;;;;;4860384;29;20049;-77
2020/12/20 12:50:34;;;;;;;9.25;1.95;;;18.10;63.10;;;;;;4860042;29;20069;-80
2020/12/20 12:53:00;;;;;;;7.28;2.70;;;18.10;63.10;;;;;;4851220;29;20042;-79
2020/12/20 12:55:29;;;;;;;6.10;2.17;;;18.10;63.10;;;;;;4862283;29;20386;-79
2020/12/20 12:57:56;;;;;;;7.68;2.30;;;18.10;63.20;;;;;;4861936;29;20041;-78
2020/12/20 13:00:23;;;;;;;8.25;3.00;;;18.10;63.10;;;;;;4861310;29;20407;-79
2020/12/20 13:03:10;;;;;;;8.50;2.63;;;18.10;63.10;;;;;;4861764;29;20049;-79
2020/12/20 13:05:57;;;;;;;10.10;2.08;;;18.10;63.20;;;;;;4862659;29;20088;-74
2020/12/20 13:08:23;;;;;;;11.57;3.47;;;18.10;63.30;;;;;;4861916;29;20475;-77
2020/12/20 13:10:49;;;;;;;12.55;2.67;;;18.10;63.30;;;;;;4862021;29;20065;-79
2020/12/20 13:13:14;;;;;;;7.65;2.75;;;18.10;63.30;;;;;;4861660;29;20053;-76